sensor_id;sensor_type;location;lat;lon;timestamp;P1;durP1;ratioP1;P2;durP2;ratioP2
18677;SDS011;9469;51.114;13.914;2023-01-24T00:04:00;66.53;;;28.87;;
18677;SDS011;9469;51.114;13.914;2023-01-24T00:09:08;62.37;;;29.67;;
18677;SDS011;9469;51.114;13.914;2023-01-24T00:14:15;65.93;;;28.53;;
18677;SDS011;9469;51.114;13.914;2023-01-24T00:19:20;61.73;;;29.23;;
18677;SDS011;9469;51.114;13.914;2023-01-24T00:24:25;64.87;;;28.60;;
18677;SDS011;9469;51.114;13.914;2023-01-24T00:29:37;63.77;;;29.67;;
18677;SDS011;9469;51.114;13.914;2023-01-24T00:34:42;61.17;;;28.80;;
18677;SDS011;9469;51.114;13.914;2023-01-24T00:39:47;68.43;;;30.70;;
18677;SDS011;9469;51.114;13.914;2023-01-24T00:44:55;65.87;;;29.50;;
18677;SDS011;9469;51.114;13.914;2023-01-24T00:50:00;65.03;;;31.33;;
18677;SDS011;9469;51.114;13.914;2023-01-24T00:55:08;67.27;;;30.47;;
18677;SDS011;9469;51.114;13.914;2023-01-24T01:00:16;63.67;;;27.63;;
18677;SDS011;9469;51.114;13.914;2023-01-24T01:05:22;66.00;;;29.40;;
18677;SDS011;9469;51.114;13.914;2023-01-24T01:10:28;66.70;;;30.10;;
18677;SDS011;9469;51.114;13.914;2023-01-24T01:15:35;60.37;;;28.77;;
18677;SDS011;9469;51.114;13.914;2023-01-24T01:20:40;60.67;;;29.77;;
18677;SDS011;9469;51.114;13.914;2023-01-24T01:25:45;64.23;;;29.93;;
18677;SDS011;9469;51.114;13.914;2023-01-24T01:30:54;56.20;;;27.27;;
18677;SDS011;9469;51.114;13.914;2023-01-24T01:36:00;59.77;;;27.47;;
18677;SDS011;9469;51.114;13.914;2023-01-24T01:41:05;62.13;;;27.80;;
18677;SDS011;9469;51.114;13.914;2023-01-24T01:46:16;57.63;;;27.40;;
18677;SDS011;9469;51.114;13.914;2023-01-24T01:51:25;57.47;;;29.07;;
18677;SDS011;9469;51.114;13.914;2023-01-24T01:56:36;73.60;;;28.83;;
18677;SDS011;9469;51.114;13.914;2023-01-24T02:01:49;61.53;;;30.03;;
18677;SDS011;9469;51.114;13.914;2023-01-24T02:07:00;62.77;;;28.00;;
18677;SDS011;9469;51.114;13.914;2023-01-24T02:12:09;68.07;;;31.40;;
18677;SDS011;9469;51.114;13.914;2023-01-24T02:17:20;62.83;;;29.37;;
18677;SDS011;9469;51.114;13.914;2023-01-24T02:22:28;67.03;;;30.73;;
18677;SDS011;9469;51.114;13.914;2023-01-24T02:27:43;64.03;;;29.10;;
18677;SDS011;9469;51.114;13.914;2023-01-24T02:32:48;70.40;;;31.60;;
18677;SDS011;9469;51.114;13.914;2023-01-24T02:37:54;62.50;;;27.93;;
18677;SDS011;9469;51.114;13.914;2023-01-24T02:43:07;62.17;;;29.57;;
18677;SDS011;9469;51.114;13.914;2023-01-24T02:48:16;59.57;;;30.43;;
18677;SDS011;9469;51.114;13.914;2023-01-24T02:53:21;61.90;;;28.90;;
18677;SDS011;9469;51.114;13.914;2023-01-24T02:58:38;57.83;;;27.07;;
18677;SDS011;9469;51.114;13.914;2023-01-24T03:03:44;61.37;;;28.63;;
18677;SDS011;9469;51.114;13.914;2023-01-24T03:08:50;59.67;;;27.23;;
18677;SDS011;9469;51.114;13.914;2023-01-24T03:14:05;65.77;;;31.40;;
18677;SDS011;9469;51.114;13.914;2023-01-24T03:19:25;69.03;;;30.60;;
18677;SDS011;9469;51.114;13.914;2023-01-24T03:24:43;71.50;;;29.50;;
18677;SDS011;9469;51.114;13.914;2023-01-24T03:30:03;73.43;;;30.97;;
18677;SDS011;9469;51.114;13.914;2023-01-24T03:35:22;81.20;;;31.27;;
18677;SDS011;9469;51.114;13.914;2023-01-24T03:40:28;123.20;;;33.07;;
18677;SDS011;9469;51.114;13.914;2023-01-24T03:45:37;107.20;;;30.80;;
18677;SDS011;9469;51.114;13.914;2023-01-24T03:50:58;113.40;;;33.23;;
18677;SDS011;9469;51.114;13.914;2023-01-24T03:56:16;112.10;;;33.40;;
18677;SDS011;9469;51.114;13.914;2023-01-24T04:01:31;83.80;;;33.37;;
18677;SDS011;9469;51.114;13.914;2023-01-24T04:06:49;71.57;;;29.80;;
18677;SDS011;9469;51.114;13.914;2023-01-24T04:11:57;73.47;;;29.73;;
18677;SDS011;9469;51.114;13.914;2023-01-24T04:17:05;83.00;;;30.63;;
18677;SDS011;9469;51.114;13.914;2023-01-24T04:22:33;87.97;;;32.10;;
18677;SDS011;9469;51.114;13.914;2023-01-24T04:27:46;82.47;;;31.90;;
18677;SDS011;9469;51.114;13.914;2023-01-24T04:32:59;77.07;;;31.57;;
18677;SDS011;9469;51.114;13.914;2023-01-24T04:38:05;83.03;;;31.67;;
18677;SDS011;9469;51.114;13.914;2023-01-24T04:43:23;82.83;;;31.33;;
18677;SDS011;9469;51.114;13.914;2023-01-24T04:48:33;79.33;;;29.93;;
18677;SDS011;9469;51.114;13.914;2023-01-24T04:53:39;81.80;;;31.07;;
18677;SDS011;9469;51.114;13.914;2023-01-24T04:58:47;75.80;;;30.73;;
18677;SDS011;9469;51.114;13.914;2023-01-24T05:03:55;74.30;;;30.53;;
18677;SDS011;9469;51.114;13.914;2023-01-24T05:09:04;76.90;;;30.27;;
18677;SDS011;9469;51.114;13.914;2023-01-24T05:14:19;72.03;;;30.83;;
18677;SDS011;9469;51.114;13.914;2023-01-24T05:19:29;82.70;;;30.03;;
18677;SDS011;9469;51.114;13.914;2023-01-24T05:24:34;75.63;;;30.50;;
18677;SDS011;9469;51.114;13.914;2023-01-24T05:29:40;74.47;;;29.63;;
18677;SDS011;9469;51.114;13.914;2023-01-24T05:34:48;88.23;;;30.80;;
18677;SDS011;9469;51.114;13.914;2023-01-24T05:39:53;77.77;;;30.97;;
18677;SDS011;9469;51.114;13.914;2023-01-24T05:45:00;73.30;;;29.60;;
18677;SDS011;9469;51.114;13.914;2023-01-24T05:50:11;76.70;;;29.73;;
18677;SDS011;9469;51.114;13.914;2023-01-24T05:55:17;78.03;;;31.63;;
18677;SDS011;9469;51.114;13.914;2023-01-24T06:00:24;66.97;;;28.40;;
18677;SDS011;9469;51.114;13.914;2023-01-24T06:06:11;77.70;;;31.20;;
18677;SDS011;9469;51.114;13.914;2023-01-24T06:11:21;65.10;;;27.03;;
18677;SDS011;9469;51.114;13.914;2023-01-24T06:16:42;75.43;;;30.00;;
18677;SDS011;9469;51.114;13.914;2023-01-24T06:21:52;70.60;;;30.23;;
18677;SDS011;9469;51.114;13.914;2023-01-24T06:27:11;75.50;;;29.63;;
18677;SDS011;9469;51.114;13.914;2023-01-24T06:32:19;68.53;;;29.77;;
18677;SDS011;9469;51.114;13.914;2023-01-24T06:37:41;70.63;;;28.83;;
18677;SDS011;9469;51.114;13.914;2023-01-24T06:42:50;68.73;;;30.27;;
18677;SDS011;9469;51.114;13.914;2023-01-24T06:48:04;66.33;;;29.23;;
18677;SDS011;9469;51.114;13.914;2023-01-24T06:53:19;66.07;;;29.97;;
18677;SDS011;9469;51.114;13.914;2023-01-24T06:58:26;64.50;;;28.53;;
18677;SDS011;9469;51.114;13.914;2023-01-24T07:03:31;59.10;;;27.03;;
18677;SDS011;9469;51.114;13.914;2023-01-24T07:08:42;63.70;;;26.20;;
18677;SDS011;9469;51.114;13.914;2023-01-24T07:13:47;62.03;;;28.80;;
18677;SDS011;9469;51.114;13.914;2023-01-24T07:18:52;56.77;;;26.17;;
18677;SDS011;9469;51.114;13.914;2023-01-24T07:24:00;52.80;;;24.97;;
18677;SDS011;9469;51.114;13.914;2023-01-24T07:29:06;54.83;;;25.93;;
18677;SDS011;9469;51.114;13.914;2023-01-24T07:34:12;57.30;;;25.47;;
18677;SDS011;9469;51.114;13.914;2023-01-24T07:39:27;67.77;;;28.77;;
18677;SDS011;9469;51.114;13.914;2023-01-24T07:44:35;60.43;;;26.37;;
18677;SDS011;9469;51.114;13.914;2023-01-24T07:49:40;60.57;;;27.57;;
18677;SDS011;9469;51.114;13.914;2023-01-24T07:54:51;68.10;;;28.47;;
18677;SDS011;9469;51.114;13.914;2023-01-24T07:59:56;60.97;;;27.30;;
18677;SDS011;9469;51.114;13.914;2023-01-24T08:05:01;61.30;;;27.23;;
18677;SDS011;9469;51.114;13.914;2023-01-24T08:10:10;61.83;;;27.83;;
18677;SDS011;9469;51.114;13.914;2023-01-24T08:15:16;69.13;;;30.83;;
18677;SDS011;9469;51.114;13.914;2023-01-24T08:20:24;62.80;;;28.47;;
18677;SDS011;9469;51.114;13.914;2023-01-24T08:25:33;79.20;;;32.43;;
18677;SDS011;9469;51.114;13.914;2023-01-24T08:30:39;65.93;;;28.63;;
18677;SDS011;9469;51.114;13.914;2023-01-24T08:35:46;69.03;;;31.73;;
18677;SDS011;9469;51.114;13.914;2023-01-24T08:40:54;65.27;;;30.00;;
18677;SDS011;9469;51.114;13.914;2023-01-24T08:45:59;70.83;;;28.60;;
18677;SDS011;9469;51.114;13.914;2023-01-24T08:51:05;89.40;;;30.50;;
18677;SDS011;9469;51.114;13.914;2023-01-24T08:56:14;64.03;;;28.20;;
18677;SDS011;9469;51.114;13.914;2023-01-24T09:01:20;68.50;;;29.43;;
18677;SDS011;9469;51.114;13.914;2023-01-24T09:06:34;74.17;;;30.03;;
18677;SDS011;9469;51.114;13.914;2023-01-24T09:11:43;69.17;;;29.00;;
18677;SDS011;9469;51.114;13.914;2023-01-24T09:16:49;72.93;;;30.40;;
18677;SDS011;9469;51.114;13.914;2023-01-24T09:21:55;79.20;;;31.30;;
18677;SDS011;9469;51.114;13.914;2023-01-24T09:27:03;74.47;;;30.13;;
18677;SDS011;9469;51.114;13.914;2023-01-24T09:32:08;69.80;;;29.00;;
18677;SDS011;9469;51.114;13.914;2023-01-24T09:37:16;76.37;;;31.37;;
18677;SDS011;9469;51.114;13.914;2023-01-24T09:42:29;79.43;;;30.57;;
18677;SDS011;9469;51.114;13.914;2023-01-24T09:47:43;78.27;;;30.60;;
18677;SDS011;9469;51.114;13.914;2023-01-24T09:53:11;69.43;;;28.97;;
18677;SDS011;9469;51.114;13.914;2023-01-24T09:58:29;68.33;;;28.53;;
18677;SDS011;9469;51.114;13.914;2023-01-24T10:03:38;77.57;;;31.43;;
18677;SDS011;9469;51.114;13.914;2023-01-24T10:08:45;71.33;;;32.40;;
18677;SDS011;9469;51.114;13.914;2023-01-24T10:14:05;65.60;;;29.50;;
18677;SDS011;9469;51.114;13.914;2023-01-24T10:19:28;71.70;;;31.20;;
18677;SDS011;9469;51.114;13.914;2023-01-24T10:24:46;68.53;;;30.37;;
18677;SDS011;9469;51.114;13.914;2023-01-24T10:30:00;67.93;;;28.93;;
18677;SDS011;9469;51.114;13.914;2023-01-24T10:35:19;68.30;;;29.00;;
18677;SDS011;9469;51.114;13.914;2023-01-24T10:40:28;79.77;;;31.13;;
18677;SDS011;9469;51.114;13.914;2023-01-24T10:45:42;79.60;;;33.03;;
18677;SDS011;9469;51.114;13.914;2023-01-24T10:51:06;69.90;;;30.87;;
18677;SDS011;9469;51.114;13.914;2023-01-24T10:56:19;79.03;;;32.47;;
18677;SDS011;9469;51.114;13.914;2023-01-24T11:01:35;78.07;;;33.00;;
18677;SDS011;9469;51.114;13.914;2023-01-24T11:06:42;84.37;;;34.70;;
18677;SDS011;9469;51.114;13.914;2023-01-24T11:11:55;73.33;;;31.37;;
18677;SDS011;9469;51.114;13.914;2023-01-24T11:17:07;86.67;;;33.70;;
18677;SDS011;9469;51.114;13.914;2023-01-24T11:22:34;90.23;;;34.60;;
18677;SDS011;9469;51.114;13.914;2023-01-24T11:27:44;77.60;;;32.27;;
18677;SDS011;9469;51.114;13.914;2023-01-24T11:32:57;74.20;;;31.83;;
18677;SDS011;9469;51.114;13.914;2023-01-24T11:38:19;80.17;;;32.90;;
18677;SDS011;9469;51.114;13.914;2023-01-24T11:43:32;84.97;;;30.67;;
18677;SDS011;9469;51.114;13.914;2023-01-24T11:48:51;78.33;;;30.80;;
18677;SDS011;9469;51.114;13.914;2023-01-24T11:59:41;80.90;;;34.20;;
18677;SDS011;9469;51.114;13.914;2023-01-24T12:05:05;78.43;;;33.00;;
18677;SDS011;9469;51.114;13.914;2023-01-24T12:10:33;80.67;;;35.83;;
18677;SDS011;9469;51.114;13.914;2023-01-24T12:15:57;78.23;;;32.30;;
18677;SDS011;9469;51.114;13.914;2023-01-24T12:21:14;68.30;;;30.43;;
18677;SDS011;9469;51.114;13.914;2023-01-24T12:26:20;70.50;;;29.97;;
18677;SDS011;9469;51.114;13.914;2023-01-24T12:31:33;59.50;;;27.60;;
18677;SDS011;9469;51.114;13.914;2023-01-24T12:36:48;62.93;;;28.70;;
18677;SDS011;9469;51.114;13.914;2023-01-24T12:42:01;64.07;;;29.63;;
18677;SDS011;9469;51.114;13.914;2023-01-24T12:47:16;61.87;;;27.10;;
18677;SDS011;9469;51.114;13.914;2023-01-24T12:52:39;68.37;;;29.10;;
18677;SDS011;9469;51.114;13.914;2023-01-24T12:57:50;62.57;;;32.03;;
18677;SDS011;9469;51.114;13.914;2023-01-24T13:03:13;64.30;;;29.33;;
18677;SDS011;9469;51.114;13.914;2023-01-24T13:08:51;59.77;;;28.43;;
18677;SDS011;9469;51.114;13.914;2023-01-24T13:14:07;54.57;;;26.90;;
18677;SDS011;9469;51.114;13.914;2023-01-24T13:19:24;55.87;;;26.70;;
18677;SDS011;9469;51.114;13.914;2023-01-24T13:24:48;56.03;;;26.43;;
18677;SDS011;9469;51.114;13.914;2023-01-24T13:35:34;49.97;;;24.90;;
18677;SDS011;9469;51.114;13.914;2023-01-24T13:40:50;58.50;;;29.07;;
18677;SDS011;9469;51.114;13.914;2023-01-24T13:46:02;56.60;;;28.60;;
18677;SDS011;9469;51.114;13.914;2023-01-24T13:51:30;61.07;;;30.23;;
18677;SDS011;9469;51.114;13.914;2023-01-24T14:02:35;71.30;;;32.03;;
18677;SDS011;9469;51.114;13.914;2023-01-24T14:07:46;65.40;;;30.73;;
18677;SDS011;9469;51.114;13.914;2023-01-24T14:12:52;81.67;;;33.07;;
18677;SDS011;9469;51.114;13.914;2023-01-24T14:18:01;76.97;;;33.07;;
18677;SDS011;9469;51.114;13.914;2023-01-24T14:23:11;78.73;;;31.53;;
18677;SDS011;9469;51.114;13.914;2023-01-24T14:28:24;75.40;;;32.23;;
18677;SDS011;9469;51.114;13.914;2023-01-24T14:33:44;76.33;;;32.93;;
18677;SDS011;9469;51.114;13.914;2023-01-24T14:44:28;66.63;;;29.50;;
18677;SDS011;9469;51.114;13.914;2023-01-24T14:49:45;75.23;;;32.23;;
18677;SDS011;9469;51.114;13.914;2023-01-24T14:54:57;79.47;;;34.67;;
18677;SDS011;9469;51.114;13.914;2023-01-24T15:00:05;74.23;;;31.00;;
18677;SDS011;9469;51.114;13.914;2023-01-24T15:05:24;72.63;;;34.00;;
18677;SDS011;9469;51.114;13.914;2023-01-24T15:10:33;102.87;;;33.93;;
18677;SDS011;9469;51.114;13.914;2023-01-24T15:15:40;73.60;;;33.17;;
18677;SDS011;9469;51.114;13.914;2023-01-24T15:20:48;79.50;;;33.87;;
18677;SDS011;9469;51.114;13.914;2023-01-24T15:25:56;79.87;;;32.23;;
18677;SDS011;9469;51.114;13.914;2023-01-24T15:31:02;93.23;;;33.53;;
18677;SDS011;9469;51.114;13.914;2023-01-24T15:36:21;80.17;;;32.70;;
18677;SDS011;9469;51.114;13.914;2023-01-24T15:41:34;84.57;;;35.17;;
18677;SDS011;9469;51.114;13.914;2023-01-24T15:46:53;81.10;;;33.50;;
18677;SDS011;9469;51.114;13.914;2023-01-24T15:52:16;88.33;;;33.57;;
18677;SDS011;9469;51.114;13.914;2023-01-24T15:57:28;79.53;;;31.87;;
18677;SDS011;9469;51.114;13.914;2023-01-24T16:02:36;75.30;;;30.00;;
18677;SDS011;9469;51.114;13.914;2023-01-24T16:07:46;78.80;;;32.73;;
18677;SDS011;9469;51.114;13.914;2023-01-24T16:12:54;76.50;;;30.27;;
18677;SDS011;9469;51.114;13.914;2023-01-24T16:18:00;86.53;;;33.37;;
18677;SDS011;9469;51.114;13.914;2023-01-24T16:23:10;78.03;;;32.23;;
18677;SDS011;9469;51.114;13.914;2023-01-24T16:28:19;83.70;;;33.37;;
18677;SDS011;9469;51.114;13.914;2023-01-24T16:33:27;83.43;;;34.40;;
18677;SDS011;9469;51.114;13.914;2023-01-24T16:38:36;56.67;;;25.80;;
18677;SDS011;9469;51.114;13.914;2023-01-24T16:43:42;62.73;;;27.90;;
18677;SDS011;9469;51.114;13.914;2023-01-24T16:48:50;56.37;;;26.80;;
18677;SDS011;9469;51.114;13.914;2023-01-24T16:53:57;68.83;;;27.07;;
18677;SDS011;9469;51.114;13.914;2023-01-24T16:59:03;50.73;;;23.43;;
18677;SDS011;9469;51.114;13.914;2023-01-24T17:04:09;63.53;;;27.83;;
18677;SDS011;9469;51.114;13.914;2023-01-24T17:09:19;48.93;;;22.90;;
18677;SDS011;9469;51.114;13.914;2023-01-24T17:14:24;52.83;;;24.73;;
18677;SDS011;9469;51.114;13.914;2023-01-24T17:19:31;48.47;;;23.03;;
18677;SDS011;9469;51.114;13.914;2023-01-24T17:24:44;51.87;;;23.57;;
18677;SDS011;9469;51.114;13.914;2023-01-24T17:29:50;47.10;;;22.07;;
18677;SDS011;9469;51.114;13.914;2023-01-24T17:34:55;49.40;;;23.70;;
18677;SDS011;9469;51.114;13.914;2023-01-24T17:40:04;55.63;;;24.80;;
18677;SDS011;9469;51.114;13.914;2023-01-24T17:45:11;57.47;;;26.03;;
18677;SDS011;9469;51.114;13.914;2023-01-24T17:50:20;53.90;;;25.03;;
18677;SDS011;9469;51.114;13.914;2023-01-24T17:55:28;53.07;;;23.67;;
18677;SDS011;9469;51.114;13.914;2023-01-24T18:00:39;48.90;;;24.00;;
18677;SDS011;9469;51.114;13.914;2023-01-24T18:05:45;53.63;;;25.67;;
18677;SDS011;9469;51.114;13.914;2023-01-24T18:10:54;54.73;;;25.90;;
18677;SDS011;9469;51.114;13.914;2023-01-24T18:16:05;51.47;;;24.53;;
18677;SDS011;9469;51.114;13.914;2023-01-24T18:21:13;51.47;;;26.10;;
18677;SDS011;9469;51.114;13.914;2023-01-24T18:26:23;51.93;;;24.47;;
18677;SDS011;9469;51.114;13.914;2023-01-24T18:31:29;49.40;;;24.80;;
18677;SDS011;9469;51.114;13.914;2023-01-24T18:36:35;50.77;;;25.17;;
18677;SDS011;9469;51.114;13.914;2023-01-24T18:41:48;47.13;;;23.23;;
18677;SDS011;9469;51.114;13.914;2023-01-24T18:46:56;57.30;;;25.43;;
18677;SDS011;9469;51.114;13.914;2023-01-24T18:52:01;51.63;;;24.37;;
18677;SDS011;9469;51.114;13.914;2023-01-24T18:57:09;48.97;;;24.83;;
18677;SDS011;9469;51.114;13.914;2023-01-24T19:02:16;49.00;;;25.77;;
18677;SDS011;9469;51.114;13.914;2023-01-24T19:07:23;44.93;;;22.90;;
18677;SDS011;9469;51.114;13.914;2023-01-24T19:12:31;49.10;;;24.87;;
18677;SDS011;9469;51.114;13.914;2023-01-24T19:17:36;46.97;;;23.20;;
18677;SDS011;9469;51.114;13.914;2023-01-24T19:22:41;51.97;;;23.57;;
18677;SDS011;9469;51.114;13.914;2023-01-24T19:27:49;45.77;;;23.53;;
18677;SDS011;9469;51.114;13.914;2023-01-24T19:32:57;47.27;;;22.57;;
18677;SDS011;9469;51.114;13.914;2023-01-24T19:38:02;42.87;;;22.47;;
18677;SDS011;9469;51.114;13.914;2023-01-24T19:43:14;51.33;;;24.63;;
18677;SDS011;9469;51.114;13.914;2023-01-24T19:48:20;49.53;;;24.57;;
18677;SDS011;9469;51.114;13.914;2023-01-24T19:53:25;45.97;;;23.97;;
18677;SDS011;9469;51.114;13.914;2023-01-24T19:58:34;45.00;;;22.07;;
18677;SDS011;9469;51.114;13.914;2023-01-24T20:03:40;54.07;;;24.23;;
18677;SDS011;9469;51.114;13.914;2023-01-24T20:08:48;52.63;;;25.90;;
18677;SDS011;9469;51.114;13.914;2023-01-24T20:13:59;52.07;;;26.07;;
18677;SDS011;9469;51.114;13.914;2023-01-24T20:19:07;51.97;;;24.83;;
18677;SDS011;9469;51.114;13.914;2023-01-24T20:24:28;52.87;;;24.67;;
18677;SDS011;9469;51.114;13.914;2023-01-24T20:29:37;50.13;;;24.70;;
18677;SDS011;9469;51.114;13.914;2023-01-24T20:34:43;53.27;;;24.53;;
18677;SDS011;9469;51.114;13.914;2023-01-24T20:39:48;57.77;;;27.17;;
18677;SDS011;9469;51.114;13.914;2023-01-24T20:44:56;57.70;;;27.60;;
18677;SDS011;9469;51.114;13.914;2023-01-24T20:50:02;50.63;;;24.13;;
18677;SDS011;9469;51.114;13.914;2023-01-24T20:55:08;51.30;;;25.07;;
18677;SDS011;9469;51.114;13.914;2023-01-24T21:00:17;57.80;;;24.93;;
18677;SDS011;9469;51.114;13.914;2023-01-24T21:05:22;50.70;;;25.90;;
18677;SDS011;9469;51.114;13.914;2023-01-24T21:10:27;58.13;;;25.60;;
18677;SDS011;9469;51.114;13.914;2023-01-24T21:15:35;45.23;;;23.30;;
18677;SDS011;9469;51.114;13.914;2023-01-24T21:20:40;47.67;;;22.83;;
18677;SDS011;9469;51.114;13.914;2023-01-24T21:25:47;50.93;;;24.67;;
18677;SDS011;9469;51.114;13.914;2023-01-24T21:31:01;56.73;;;25.37;;
18677;SDS011;9469;51.114;13.914;2023-01-24T21:36:09;47.10;;;24.13;;
18677;SDS011;9469;51.114;13.914;2023-01-24T21:41:17;44.30;;;23.50;;
18677;SDS011;9469;51.114;13.914;2023-01-24T21:46:38;43.57;;;21.90;;
18677;SDS011;9469;51.114;13.914;2023-01-24T21:51:46;49.97;;;22.07;;
18677;SDS011;9469;51.114;13.914;2023-01-24T21:56:54;39.20;;;19.87;;
18677;SDS011;9469;51.114;13.914;2023-01-24T22:02:33;42.00;;;21.97;;
18677;SDS011;9469;51.114;13.914;2023-01-24T22:07:41;42.73;;;20.20;;
18677;SDS011;9469;51.114;13.914;2023-01-24T22:12:46;41.60;;;22.07;;
18677;SDS011;9469;51.114;13.914;2023-01-24T22:17:54;41.53;;;22.70;;
18677;SDS011;9469;51.114;13.914;2023-01-24T22:23:02;40.80;;;20.13;;
18677;SDS011;9469;51.114;13.914;2023-01-24T22:28:19;40.13;;;19.23;;
18677;SDS011;9469;51.114;13.914;2023-01-24T22:33:29;44.23;;;20.83;;
18677;SDS011;9469;51.114;13.914;2023-01-24T22:38:34;48.37;;;22.33;;
18677;SDS011;9469;51.114;13.914;2023-01-24T22:43:39;52.03;;;24.03;;
18677;SDS011;9469;51.114;13.914;2023-01-24T22:48:47;37.30;;;19.80;;
18677;SDS011;9469;51.114;13.914;2023-01-24T22:53:52;41.97;;;22.20;;
18677;SDS011;9469;51.114;13.914;2023-01-24T22:58:57;42.00;;;21.63;;
18677;SDS011;9469;51.114;13.914;2023-01-24T23:04:07;36.77;;;19.30;;
18677;SDS011;9469;51.114;13.914;2023-01-24T23:09:12;36.97;;;19.50;;
18677;SDS011;9469;51.114;13.914;2023-01-24T23:14:18;36.33;;;18.33;;
18677;SDS011;9469;51.114;13.914;2023-01-24T23:19:39;35.03;;;18.93;;
18677;SDS011;9469;51.114;13.914;2023-01-24T23:24:58;30.90;;;16.37;;
18677;SDS011;9469;51.114;13.914;2023-01-24T23:30:17;39.03;;;19.23;;
18677;SDS011;9469;51.114;13.914;2023-01-24T23:35:32;29.57;;;17.70;;
18677;SDS011;9469;51.114;13.914;2023-01-24T23:40:39;32.53;;;17.37;;
18677;SDS011;9469;51.114;13.914;2023-01-24T23:45:44;31.97;;;17.07;;
18677;SDS011;9469;51.114;13.914;2023-01-24T23:50:55;34.50;;;18.10;;
18677;SDS011;9469;51.114;13.914;2023-01-24T23:56:01;30.40;;;16.23;;
